sensor_id;sensor_type;location;lat;lon;timestamp;P1;durP1;ratioP1;P2;durP2;ratioP2
49029;SDS011;43337;52.070;4.508;2023-12-07T00:01:45;19.42;;;7.60;;
49029;SDS011;43337;52.070;4.508;2023-12-07T00:04:11;13.75;;;5.80;;
49029;SDS011;43337;52.070;4.508;2023-12-07T00:06:36;17.88;;;7.13;;
49029;SDS011;43337;52.070;4.508;2023-12-07T00:09:02;17.15;;;7.05;;
49029;SDS011;43337;52.070;4.508;2023-12-07T00:11:27;16.75;;;6.82;;
49029;SDS011;43337;52.070;4.508;2023-12-07T00:13:52;16.15;;;7.00;;
49029;SDS011;43337;52.070;4.508;2023-12-07T00:16:18;18.00;;;6.88;;
49029;SDS011;43337;52.070;4.508;2023-12-07T00:18:43;22.50;;;7.57;;
49029;SDS011;43337;52.070;4.508;2023-12-07T00:21:09;15.77;;;6.68;;
49029;SDS011;43337;52.070;4.508;2023-12-07T00:23:34;17.00;;;6.88;;
49029;SDS011;43337;52.070;4.508;2023-12-07T00:26:00;17.75;;;7.65;;
49029;SDS011;43337;52.070;4.508;2023-12-07T00:28:25;17.17;;;6.85;;
49029;SDS011;43337;52.070;4.508;2023-12-07T00:30:51;16.13;;;6.82;;
49029;SDS011;43337;52.070;4.508;2023-12-07T00:33:17;14.30;;;6.65;;
49029;SDS011;43337;52.070;4.508;2023-12-07T00:35:42;18.15;;;8.10;;
49029;SDS011;43337;52.070;4.508;2023-12-07T00:38:08;18.85;;;7.47;;
49029;SDS011;43337;52.070;4.508;2023-12-07T00:40:34;20.15;;;7.38;;
49029;SDS011;43337;52.070;4.508;2023-12-07T00:43:01;15.48;;;7.38;;
49029;SDS011;43337;52.070;4.508;2023-12-07T00:45:27;15.10;;;6.63;;
49029;SDS011;43337;52.070;4.508;2023-12-07T00:47:52;17.80;;;7.30;;
49029;SDS011;43337;52.070;4.508;2023-12-07T00:50:19;17.27;;;6.97;;
49029;SDS011;43337;52.070;4.508;2023-12-07T00:52:46;14.90;;;6.70;;
49029;SDS011;43337;52.070;4.508;2023-12-07T00:55:11;18.52;;;7.35;;
49029;SDS011;43337;52.070;4.508;2023-12-07T00:57:37;15.45;;;6.35;;
49029;SDS011;43337;52.070;4.508;2023-12-07T01:00:02;16.42;;;7.30;;
49029;SDS011;43337;52.070;4.508;2023-12-07T01:02:29;16.52;;;6.57;;
49029;SDS011;43337;52.070;4.508;2023-12-07T01:04:54;15.20;;;7.05;;
49029;SDS011;43337;52.070;4.508;2023-12-07T01:07:19;15.27;;;6.15;;
49029;SDS011;43337;52.070;4.508;2023-12-07T01:09:46;15.20;;;6.68;;
49029;SDS011;43337;52.070;4.508;2023-12-07T01:12:11;15.73;;;6.47;;
49029;SDS011;43337;52.070;4.508;2023-12-07T01:14:37;16.35;;;6.10;;
49029;SDS011;43337;52.070;4.508;2023-12-07T01:17:03;13.00;;;5.82;;
49029;SDS011;43337;52.070;4.508;2023-12-07T01:19:28;17.00;;;5.88;;
49029;SDS011;43337;52.070;4.508;2023-12-07T01:21:54;12.52;;;5.88;;
49029;SDS011;43337;52.070;4.508;2023-12-07T01:24:19;11.82;;;6.10;;
49029;SDS011;43337;52.070;4.508;2023-12-07T01:26:46;15.68;;;6.30;;
49029;SDS011;43337;52.070;4.508;2023-12-07T01:29:11;15.85;;;6.47;;
49029;SDS011;43337;52.070;4.508;2023-12-07T01:31:38;16.02;;;6.50;;
49029;SDS011;43337;52.070;4.508;2023-12-07T01:34:04;14.13;;;5.93;;
49029;SDS011;43337;52.070;4.508;2023-12-07T01:36:30;19.38;;;6.93;;
49029;SDS011;43337;52.070;4.508;2023-12-07T01:38:55;20.00;;;6.45;;
49029;SDS011;43337;52.070;4.508;2023-12-07T01:41:20;15.43;;;6.63;;
49029;SDS011;43337;52.070;4.508;2023-12-07T01:43:46;15.23;;;6.30;;
49029;SDS011;43337;52.070;4.508;2023-12-07T01:46:12;20.10;;;7.13;;
49029;SDS011;43337;52.070;4.508;2023-12-07T01:48:39;15.35;;;6.55;;
49029;SDS011;43337;52.070;4.508;2023-12-07T01:51:04;14.05;;;6.53;;
49029;SDS011;43337;52.070;4.508;2023-12-07T01:53:31;15.00;;;6.40;;
49029;SDS011;43337;52.070;4.508;2023-12-07T01:55:57;15.20;;;6.30;;
49029;SDS011;43337;52.070;4.508;2023-12-07T01:58:22;16.75;;;6.75;;
49029;SDS011;43337;52.070;4.508;2023-12-07T02:00:48;14.32;;;6.20;;
49029;SDS011;43337;52.070;4.508;2023-12-07T02:03:14;15.48;;;6.35;;
49029;SDS011;43337;52.070;4.508;2023-12-07T02:05:42;13.18;;;5.60;;
49029;SDS011;43337;52.070;4.508;2023-12-07T02:08:10;15.05;;;6.65;;
49029;SDS011;43337;52.070;4.508;2023-12-07T02:10:36;14.57;;;6.00;;
49029;SDS011;43337;52.070;4.508;2023-12-07T02:13:03;17.90;;;6.47;;
49029;SDS011;43337;52.070;4.508;2023-12-07T02:15:29;16.48;;;6.78;;
49029;SDS011;43337;52.070;4.508;2023-12-07T02:18:01;20.30;;;6.75;;
49029;SDS011;43337;52.070;4.508;2023-12-07T02:23:20;13.73;;;5.85;;
49029;SDS011;43337;52.070;4.508;2023-12-07T02:25:51;17.98;;;6.30;;
49029;SDS011;43337;52.070;4.508;2023-12-07T02:28:18;16.95;;;6.75;;
49029;SDS011;43337;52.070;4.508;2023-12-07T02:30:43;17.15;;;6.60;;
49029;SDS011;43337;52.070;4.508;2023-12-07T02:33:10;14.32;;;5.95;;
49029;SDS011;43337;52.070;4.508;2023-12-07T02:35:37;18.20;;;6.43;;
49029;SDS011;43337;52.070;4.508;2023-12-07T02:38:03;18.45;;;7.18;;
49029;SDS011;43337;52.070;4.508;2023-12-07T02:40:30;16.48;;;6.55;;
49029;SDS011;43337;52.070;4.508;2023-12-07T02:42:58;14.60;;;7.15;;
49029;SDS011;43337;52.070;4.508;2023-12-07T02:45:25;18.42;;;6.75;;
49029;SDS011;43337;52.070;4.508;2023-12-07T02:47:51;18.40;;;7.53;;
49029;SDS011;43337;52.070;4.508;2023-12-07T02:50:17;17.75;;;7.30;;
49029;SDS011;43337;52.070;4.508;2023-12-07T02:52:42;18.42;;;6.82;;
49029;SDS011;43337;52.070;4.508;2023-12-07T02:55:09;16.35;;;6.55;;
49029;SDS011;43337;52.070;4.508;2023-12-07T02:57:36;17.20;;;7.35;;
49029;SDS011;43337;52.070;4.508;2023-12-07T03:00:02;18.25;;;8.60;;
49029;SDS011;43337;52.070;4.508;2023-12-07T03:02:35;17.27;;;6.53;;
49029;SDS011;43337;52.070;4.508;2023-12-07T03:05:02;18.33;;;7.43;;
49029;SDS011;43337;52.070;4.508;2023-12-07T03:07:27;20.10;;;8.02;;
49029;SDS011;43337;52.070;4.508;2023-12-07T03:09:53;18.60;;;7.50;;
49029;SDS011;43337;52.070;4.508;2023-12-07T03:12:18;19.73;;;7.82;;
49029;SDS011;43337;52.070;4.508;2023-12-07T03:14:46;18.92;;;7.75;;
49029;SDS011;43337;52.070;4.508;2023-12-07T03:17:12;19.05;;;7.82;;
49029;SDS011;43337;52.070;4.508;2023-12-07T03:19:39;18.88;;;7.63;;
49029;SDS011;43337;52.070;4.508;2023-12-07T03:22:05;20.77;;;7.90;;
49029;SDS011;43337;52.070;4.508;2023-12-07T03:24:34;21.95;;;7.45;;
49029;SDS011;43337;52.070;4.508;2023-12-07T03:27:00;25.70;;;8.63;;
49029;SDS011;43337;52.070;4.508;2023-12-07T03:29:25;17.45;;;7.35;;
49029;SDS011;43337;52.070;4.508;2023-12-07T03:31:51;22.77;;;8.70;;
49029;SDS011;43337;52.070;4.508;2023-12-07T03:34:16;17.92;;;8.00;;
49029;SDS011;43337;52.070;4.508;2023-12-07T03:36:44;18.17;;;8.00;;
49029;SDS011;43337;52.070;4.508;2023-12-07T03:39:15;21.67;;;8.02;;
49029;SDS011;43337;52.070;4.508;2023-12-07T03:41:45;23.50;;;8.90;;
49029;SDS011;43337;52.070;4.508;2023-12-07T03:44:10;22.95;;;8.90;;
49029;SDS011;43337;52.070;4.508;2023-12-07T03:46:37;20.15;;;8.68;;
49029;SDS011;43337;52.070;4.508;2023-12-07T03:49:02;27.25;;;9.07;;
49029;SDS011;43337;52.070;4.508;2023-12-07T03:51:29;26.35;;;9.30;;
49029;SDS011;43337;52.070;4.508;2023-12-07T03:53:55;21.40;;;9.77;;
49029;SDS011;43337;52.070;4.508;2023-12-07T03:56:24;25.10;;;10.32;;
49029;SDS011;43337;52.070;4.508;2023-12-07T03:58:50;21.95;;;9.68;;
49029;SDS011;43337;52.070;4.508;2023-12-07T04:01:16;26.17;;;11.23;;
49029;SDS011;43337;52.070;4.508;2023-12-07T04:03:42;24.98;;;9.75;;
49029;SDS011;43337;52.070;4.508;2023-12-07T04:06:09;24.05;;;9.82;;
49029;SDS011;43337;52.070;4.508;2023-12-07T04:08:34;28.13;;;11.13;;
49029;SDS011;43337;52.070;4.508;2023-12-07T04:11:01;31.60;;;11.65;;
49029;SDS011;43337;52.070;4.508;2023-12-07T04:13:27;26.33;;;11.63;;
49029;SDS011;43337;52.070;4.508;2023-12-07T04:15:52;33.47;;;11.73;;
49029;SDS011;43337;52.070;4.508;2023-12-07T04:18:17;28.38;;;11.77;;
49029;SDS011;43337;52.070;4.508;2023-12-07T04:20:43;30.40;;;11.55;;
49029;SDS011;43337;52.070;4.508;2023-12-07T04:23:08;29.42;;;11.98;;
49029;SDS011;43337;52.070;4.508;2023-12-07T04:25:33;32.17;;;11.75;;
49029;SDS011;43337;52.070;4.508;2023-12-07T04:27:59;24.33;;;10.98;;
49029;SDS011;43337;52.070;4.508;2023-12-07T04:30:24;23.13;;;10.63;;
49029;SDS011;43337;52.070;4.508;2023-12-07T04:32:50;27.75;;;11.48;;
49029;SDS011;43337;52.070;4.508;2023-12-07T04:35:15;29.75;;;11.55;;
49029;SDS011;43337;52.070;4.508;2023-12-07T04:37:40;24.35;;;11.23;;
49029;SDS011;43337;52.070;4.508;2023-12-07T04:40:06;33.85;;;12.32;;
49029;SDS011;43337;52.070;4.508;2023-12-07T04:42:32;26.30;;;11.43;;
49029;SDS011;43337;52.070;4.508;2023-12-07T04:44:58;30.27;;;11.55;;
49029;SDS011;43337;52.070;4.508;2023-12-07T04:47:24;31.50;;;11.98;;
49029;SDS011;43337;52.070;4.508;2023-12-07T04:49:51;28.77;;;11.70;;
49029;SDS011;43337;52.070;4.508;2023-12-07T04:52:16;28.00;;;12.10;;
49029;SDS011;43337;52.070;4.508;2023-12-07T04:54:44;27.23;;;11.18;;
49029;SDS011;43337;52.070;4.508;2023-12-07T04:57:12;33.13;;;12.55;;
49029;SDS011;43337;52.070;4.508;2023-12-07T04:59:37;31.80;;;12.57;;
49029;SDS011;43337;52.070;4.508;2023-12-07T05:02:03;24.55;;;11.40;;
49029;SDS011;43337;52.070;4.508;2023-12-07T05:04:28;32.85;;;12.48;;
49029;SDS011;43337;52.070;4.508;2023-12-07T05:06:54;30.27;;;13.13;;
49029;SDS011;43337;52.070;4.508;2023-12-07T05:09:19;34.60;;;14.32;;
49029;SDS011;43337;52.070;4.508;2023-12-07T05:11:44;39.65;;;14.05;;
49029;SDS011;43337;52.070;4.508;2023-12-07T05:14:12;36.72;;;15.25;;
49029;SDS011;43337;52.070;4.508;2023-12-07T05:16:38;46.17;;;15.55;;
49029;SDS011;43337;52.070;4.508;2023-12-07T05:19:03;47.03;;;15.65;;
49029;SDS011;43337;52.070;4.508;2023-12-07T05:21:30;51.22;;;16.67;;
49029;SDS011;43337;52.070;4.508;2023-12-07T05:23:56;50.15;;;17.08;;
49029;SDS011;43337;52.070;4.508;2023-12-07T05:26:21;72.10;;;17.35;;
49029;SDS011;43337;52.070;4.508;2023-12-07T05:28:47;65.63;;;18.30;;
49029;SDS011;43337;52.070;4.508;2023-12-07T05:31:16;60.47;;;18.05;;
49029;SDS011;43337;52.070;4.508;2023-12-07T05:33:42;54.95;;;15.45;;
49029;SDS011;43337;52.070;4.508;2023-12-07T05:36:07;57.90;;;16.42;;
49029;SDS011;43337;52.070;4.508;2023-12-07T05:38:33;54.70;;;16.40;;
49029;SDS011;43337;52.070;4.508;2023-12-07T05:40:58;46.60;;;14.93;;
49029;SDS011;43337;52.070;4.508;2023-12-07T05:43:24;46.83;;;14.68;;
49029;SDS011;43337;52.070;4.508;2023-12-07T05:45:49;46.42;;;13.57;;
49029;SDS011;43337;52.070;4.508;2023-12-07T05:48:14;47.20;;;15.35;;
49029;SDS011;43337;52.070;4.508;2023-12-07T05:50:42;54.53;;;15.27;;
49029;SDS011;43337;52.070;4.508;2023-12-07T05:53:07;56.33;;;14.70;;
49029;SDS011;43337;52.070;4.508;2023-12-07T05:55:34;49.13;;;14.18;;
49029;SDS011;43337;52.070;4.508;2023-12-07T05:57:59;52.03;;;15.63;;
49029;SDS011;43337;52.070;4.508;2023-12-07T06:00:24;55.70;;;16.77;;
49029;SDS011;43337;52.070;4.508;2023-12-07T06:02:50;53.45;;;14.25;;
49029;SDS011;43337;52.070;4.508;2023-12-07T06:05:15;61.47;;;16.77;;
49029;SDS011;43337;52.070;4.508;2023-12-07T06:07:41;44.17;;;14.70;;
49029;SDS011;43337;52.070;4.508;2023-12-07T06:10:06;46.63;;;15.45;;
49029;SDS011;43337;52.070;4.508;2023-12-07T06:12:32;59.55;;;16.77;;
49029;SDS011;43337;52.070;4.508;2023-12-07T06:14:58;60.42;;;15.20;;
49029;SDS011;43337;52.070;4.508;2023-12-07T06:17:24;49.53;;;13.60;;
49029;SDS011;43337;52.070;4.508;2023-12-07T06:19:50;35.95;;;11.95;;
49029;SDS011;43337;52.070;4.508;2023-12-07T06:22:15;35.30;;;11.82;;
49029;SDS011;43337;52.070;4.508;2023-12-07T06:24:42;39.63;;;12.18;;
49029;SDS011;43337;52.070;4.508;2023-12-07T06:27:07;38.78;;;12.23;;
49029;SDS011;43337;52.070;4.508;2023-12-07T06:29:34;38.40;;;12.48;;
49029;SDS011;43337;52.070;4.508;2023-12-07T06:32:00;41.35;;;11.50;;
49029;SDS011;43337;52.070;4.508;2023-12-07T06:34:27;33.15;;;10.85;;
49029;SDS011;43337;52.070;4.508;2023-12-07T06:36:53;40.25;;;11.85;;
49029;SDS011;43337;52.070;4.508;2023-12-07T06:39:18;36.88;;;12.18;;
49029;SDS011;43337;52.070;4.508;2023-12-07T06:41:44;33.88;;;10.23;;
49029;SDS011;43337;52.070;4.508;2023-12-07T06:44:10;34.22;;;10.93;;
49029;SDS011;43337;52.070;4.508;2023-12-07T06:46:36;30.42;;;10.30;;
49029;SDS011;43337;52.070;4.508;2023-12-07T06:49:03;35.80;;;11.30;;
49029;SDS011;43337;52.070;4.508;2023-12-07T06:51:29;25.95;;;9.40;;
49029;SDS011;43337;52.070;4.508;2023-12-07T06:53:54;36.33;;;10.40;;
49029;SDS011;43337;52.070;4.508;2023-12-07T06:56:19;41.60;;;10.77;;
49029;SDS011;43337;52.070;4.508;2023-12-07T06:58:45;33.17;;;10.55;;
49029;SDS011;43337;52.070;4.508;2023-12-07T07:01:10;40.38;;;11.88;;
49029;SDS011;43337;52.070;4.508;2023-12-07T07:03:37;38.20;;;11.13;;
49029;SDS011;43337;52.070;4.508;2023-12-07T07:06:03;37.72;;;11.30;;
49029;SDS011;43337;52.070;4.508;2023-12-07T07:08:28;39.50;;;11.35;;
49029;SDS011;43337;52.070;4.508;2023-12-07T07:10:54;37.97;;;11.57;;
49029;SDS011;43337;52.070;4.508;2023-12-07T07:13:20;42.58;;;10.75;;
49029;SDS011;43337;52.070;4.508;2023-12-07T07:15:46;46.40;;;11.68;;
49029;SDS011;43337;52.070;4.508;2023-12-07T07:18:13;35.60;;;9.82;;
49029;SDS011;43337;52.070;4.508;2023-12-07T07:20:38;40.53;;;10.10;;
49029;SDS011;43337;52.070;4.508;2023-12-07T07:23:04;48.22;;;10.73;;
49029;SDS011;43337;52.070;4.508;2023-12-07T07:25:30;35.78;;;10.05;;
49029;SDS011;43337;52.070;4.508;2023-12-07T07:27:56;44.47;;;9.95;;
49029;SDS011;43337;52.070;4.508;2023-12-07T07:30:21;43.90;;;10.38;;
49029;SDS011;43337;52.070;4.508;2023-12-07T07:32:48;45.50;;;8.77;;
49029;SDS011;43337;52.070;4.508;2023-12-07T07:35:13;32.45;;;9.52;;
49029;SDS011;43337;52.070;4.508;2023-12-07T07:37:39;38.67;;;9.50;;
49029;SDS011;43337;52.070;4.508;2023-12-07T07:40:06;35.22;;;8.93;;
49029;SDS011;43337;52.070;4.508;2023-12-07T07:42:34;36.13;;;8.52;;
49029;SDS011;43337;52.070;4.508;2023-12-07T07:44:59;29.80;;;8.35;;
49029;SDS011;43337;52.070;4.508;2023-12-07T07:47:25;31.85;;;8.25;;
49029;SDS011;43337;52.070;4.508;2023-12-07T07:49:50;32.25;;;9.13;;
49029;SDS011;43337;52.070;4.508;2023-12-07T07:52:15;44.40;;;9.10;;
49029;SDS011;43337;52.070;4.508;2023-12-07T07:54:41;51.53;;;10.07;;
49029;SDS011;43337;52.070;4.508;2023-12-07T07:57:07;57.75;;;9.95;;
49029;SDS011;43337;52.070;4.508;2023-12-07T07:59:32;40.45;;;8.30;;
49029;SDS011;43337;52.070;4.508;2023-12-07T08:01:58;35.55;;;8.95;;
49029;SDS011;43337;52.070;4.508;2023-12-07T08:04:23;34.65;;;8.60;;
49029;SDS011;43337;52.070;4.508;2023-12-07T08:06:49;49.72;;;9.82;;
49029;SDS011;43337;52.070;4.508;2023-12-07T08:09:14;41.45;;;10.02;;
49029;SDS011;43337;52.070;4.508;2023-12-07T08:11:42;47.08;;;10.20;;
49029;SDS011;43337;52.070;4.508;2023-12-07T08:14:08;46.85;;;10.13;;
49029;SDS011;43337;52.070;4.508;2023-12-07T08:16:33;48.70;;;9.32;;
49029;SDS011;43337;52.070;4.508;2023-12-07T08:18:59;52.13;;;11.32;;
49029;SDS011;43337;52.070;4.508;2023-12-07T08:21:24;36.35;;;10.88;;
49029;SDS011;43337;52.070;4.508;2023-12-07T08:23:50;55.58;;;10.45;;
49029;SDS011;43337;52.070;4.508;2023-12-07T08:26:17;48.38;;;10.32;;
49029;SDS011;43337;52.070;4.508;2023-12-07T08:28:43;55.65;;;11.35;;
49029;SDS011;43337;52.070;4.508;2023-12-07T08:31:09;43.40;;;9.82;;
49029;SDS011;43337;52.070;4.508;2023-12-07T08:33:36;60.42;;;11.13;;
49029;SDS011;43337;52.070;4.508;2023-12-07T08:36:04;44.45;;;9.77;;
49029;SDS011;43337;52.070;4.508;2023-12-07T08:38:31;46.38;;;9.65;;
49029;SDS011;43337;52.070;4.508;2023-12-07T08:40:57;50.53;;;9.95;;
49029;SDS011;43337;52.070;4.508;2023-12-07T08:43:26;44.38;;;8.68;;
49029;SDS011;43337;52.070;4.508;2023-12-07T08:45:53;34.97;;;8.55;;
49029;SDS011;43337;52.070;4.508;2023-12-07T08:48:19;46.95;;;9.63;;
49029;SDS011;43337;52.070;4.508;2023-12-07T08:50:45;38.28;;;9.13;;
49029;SDS011;43337;52.070;4.508;2023-12-07T08:53:11;35.30;;;9.70;;
49029;SDS011;43337;52.070;4.508;2023-12-07T08:55:38;42.85;;;9.38;;
49029;SDS011;43337;52.070;4.508;2023-12-07T08:58:04;49.28;;;9.80;;
49029;SDS011;43337;52.070;4.508;2023-12-07T09:00:30;44.20;;;10.02;;
49029;SDS011;43337;52.070;4.508;2023-12-07T09:02:59;36.20;;;8.80;;
49029;SDS011;43337;52.070;4.508;2023-12-07T09:05:25;38.83;;;9.18;;
49029;SDS011;43337;52.070;4.508;2023-12-07T09:07:51;37.65;;;9.18;;
49029;SDS011;43337;52.070;4.508;2023-12-07T09:10:19;32.03;;;9.20;;
49029;SDS011;43337;52.070;4.508;2023-12-07T09:12:45;42.20;;;10.45;;
49029;SDS011;43337;52.070;4.508;2023-12-07T09:15:10;43.75;;;10.90;;
49029;SDS011;43337;52.070;4.508;2023-12-07T09:17:38;41.53;;;10.10;;
49029;SDS011;43337;52.070;4.508;2023-12-07T09:20:04;45.88;;;10.82;;
49029;SDS011;43337;52.070;4.508;2023-12-07T09:22:36;48.42;;;9.68;;
49029;SDS011;43337;52.070;4.508;2023-12-07T09:25:02;34.70;;;10.70;;
49029;SDS011;43337;52.070;4.508;2023-12-07T09:27:29;44.65;;;10.75;;
49029;SDS011;43337;52.070;4.508;2023-12-07T09:29:57;58.58;;;12.75;;
49029;SDS011;43337;52.070;4.508;2023-12-07T09:32:23;50.55;;;11.75;;
49029;SDS011;43337;52.070;4.508;2023-12-07T09:34:52;55.28;;;9.88;;
49029;SDS011;43337;52.070;4.508;2023-12-07T09:37:18;61.58;;;11.63;;
49029;SDS011;43337;52.070;4.508;2023-12-07T09:39:45;50.63;;;12.02;;
49029;SDS011;43337;52.070;4.508;2023-12-07T09:42:10;60.08;;;13.70;;
49029;SDS011;43337;52.070;4.508;2023-12-07T09:44:36;54.05;;;12.45;;
49029;SDS011;43337;52.070;4.508;2023-12-07T09:47:01;61.83;;;13.75;;
49029;SDS011;43337;52.070;4.508;2023-12-07T09:49:26;49.60;;;12.07;;
49029;SDS011;43337;52.070;4.508;2023-12-07T09:51:52;55.67;;;11.18;;
49029;SDS011;43337;52.070;4.508;2023-12-07T09:54:19;56.25;;;12.15;;
49029;SDS011;43337;52.070;4.508;2023-12-07T09:56:46;56.08;;;12.88;;
49029;SDS011;43337;52.070;4.508;2023-12-07T09:59:11;68.55;;;14.02;;
49029;SDS011;43337;52.070;4.508;2023-12-07T10:01:37;66.55;;;13.82;;
49029;SDS011;43337;52.070;4.508;2023-12-07T10:06:47;70.78;;;14.52;;
49029;SDS011;43337;52.070;4.508;2023-12-07T10:09:13;67.22;;;13.88;;
49029;SDS011;43337;52.070;4.508;2023-12-07T10:11:39;70.30;;;15.43;;
49029;SDS011;43337;52.070;4.508;2023-12-07T10:14:08;68.57;;;16.10;;
49029;SDS011;43337;52.070;4.508;2023-12-07T10:16:33;67.72;;;15.45;;
49029;SDS011;43337;52.070;4.508;2023-12-07T10:19:17;60.00;;;14.32;;
49029;SDS011;43337;52.070;4.508;2023-12-07T10:21:46;68.93;;;14.70;;
49029;SDS011;43337;52.070;4.508;2023-12-07T10:24:18;64.82;;;14.32;;
49029;SDS011;43337;52.070;4.508;2023-12-07T10:26:45;59.25;;;14.35;;
49029;SDS011;43337;52.070;4.508;2023-12-07T10:29:13;69.63;;;15.23;;
49029;SDS011;43337;52.070;4.508;2023-12-07T10:31:39;63.75;;;15.27;;
49029;SDS011;43337;52.070;4.508;2023-12-07T10:34:04;60.65;;;15.65;;
49029;SDS011;43337;52.070;4.508;2023-12-07T10:36:33;65.50;;;16.58;;
49029;SDS011;43337;52.070;4.508;2023-12-07T10:38:59;53.00;;;15.25;;
49029;SDS011;43337;52.070;4.508;2023-12-07T10:41:24;49.65;;;12.57;;
49029;SDS011;43337;52.070;4.508;2023-12-07T10:43:53;53.25;;;13.55;;
49029;SDS011;43337;52.070;4.508;2023-12-07T10:46:24;43.95;;;13.63;;
49029;SDS011;43337;52.070;4.508;2023-12-07T10:48:51;52.05;;;13.32;;
49029;SDS011;43337;52.070;4.508;2023-12-07T10:53:58;47.58;;;11.80;;
49029;SDS011;43337;52.070;4.508;2023-12-07T10:56:29;51.85;;;12.95;;
49029;SDS011;43337;52.070;4.508;2023-12-07T10:59:00;48.38;;;12.63;;
49029;SDS011;43337;52.070;4.508;2023-12-07T11:01:27;50.72;;;13.93;;
49029;SDS011;43337;52.070;4.508;2023-12-07T11:03:53;47.58;;;13.20;;
49029;SDS011;43337;52.070;4.508;2023-12-07T11:06:21;47.15;;;11.57;;
49029;SDS011;43337;52.070;4.508;2023-12-07T11:08:47;54.33;;;14.15;;
49029;SDS011;43337;52.070;4.508;2023-12-07T11:14:12;42.13;;;12.93;;
49029;SDS011;43337;52.070;4.508;2023-12-07T11:16:41;38.05;;;12.63;;
49029;SDS011;43337;52.070;4.508;2023-12-07T11:21:57;44.72;;;13.65;;
49029;SDS011;43337;52.070;4.508;2023-12-07T11:24:25;35.65;;;10.93;;
49029;SDS011;43337;52.070;4.508;2023-12-07T11:26:56;38.10;;;11.90;;
49029;SDS011;43337;52.070;4.508;2023-12-07T11:29:25;38.05;;;11.82;;
49029;SDS011;43337;52.070;4.508;2023-12-07T11:32:00;43.40;;;13.88;;
49029;SDS011;43337;52.070;4.508;2023-12-07T11:34:35;42.17;;;11.93;;
49029;SDS011;43337;52.070;4.508;2023-12-07T11:37:05;44.25;;;13.48;;
49029;SDS011;43337;52.070;4.508;2023-12-07T11:39:35;37.38;;;12.18;;
49029;SDS011;43337;52.070;4.508;2023-12-07T11:42:11;37.13;;;12.43;;
49029;SDS011;43337;52.070;4.508;2023-12-07T11:44:47;36.20;;;10.88;;
49029;SDS011;43337;52.070;4.508;2023-12-07T11:47:16;35.13;;;12.25;;
49029;SDS011;43337;52.070;4.508;2023-12-07T11:49:43;29.88;;;10.55;;
49029;SDS011;43337;52.070;4.508;2023-12-07T11:52:13;35.25;;;12.07;;
49029;SDS011;43337;52.070;4.508;2023-12-07T11:54:46;32.65;;;11.10;;
49029;SDS011;43337;52.070;4.508;2023-12-07T11:57:17;40.63;;;12.40;;
49029;SDS011;43337;52.070;4.508;2023-12-07T11:59:45;30.92;;;10.05;;
49029;SDS011;43337;52.070;4.508;2023-12-07T12:02:13;39.33;;;12.48;;
49029;SDS011;43337;52.070;4.508;2023-12-07T12:04:40;40.47;;;12.77;;
49029;SDS011;43337;52.070;4.508;2023-12-07T12:07:06;34.28;;;11.73;;
49029;SDS011;43337;52.070;4.508;2023-12-07T12:09:32;32.67;;;10.95;;
49029;SDS011;43337;52.070;4.508;2023-12-07T12:12:00;30.33;;;10.70;;
49029;SDS011;43337;52.070;4.508;2023-12-07T12:14:27;39.20;;;12.10;;
49029;SDS011;43337;52.070;4.508;2023-12-07T12:16:53;39.30;;;12.13;;
49029;SDS011;43337;52.070;4.508;2023-12-07T12:19:19;33.55;;;12.60;;
49029;SDS011;43337;52.070;4.508;2023-12-07T12:21:45;40.75;;;13.85;;
49029;SDS011;43337;52.070;4.508;2023-12-07T12:24:11;32.85;;;11.82;;
49029;SDS011;43337;52.070;4.508;2023-12-07T12:26:39;39.22;;;13.15;;
49029;SDS011;43337;52.070;4.508;2023-12-07T12:29:06;37.22;;;12.25;;
49029;SDS011;43337;52.070;4.508;2023-12-07T12:31:33;39.75;;;13.70;;
49029;SDS011;43337;52.070;4.508;2023-12-07T12:34:06;45.03;;;12.57;;
49029;SDS011;43337;52.070;4.508;2023-12-07T12:36:33;33.10;;;11.90;;
49029;SDS011;43337;52.070;4.508;2023-12-07T12:39:00;36.95;;;13.13;;
49029;SDS011;43337;52.070;4.508;2023-12-07T12:41:27;40.65;;;13.35;;
49029;SDS011;43337;52.070;4.508;2023-12-07T12:43:55;35.55;;;11.85;;
49029;SDS011;43337;52.070;4.508;2023-12-07T12:46:21;33.80;;;12.82;;
49029;SDS011;43337;52.070;4.508;2023-12-07T12:48:53;38.38;;;13.75;;
49029;SDS011;43337;52.070;4.508;2023-12-07T12:51:25;34.13;;;12.68;;
49029;SDS011;43337;52.070;4.508;2023-12-07T12:53:53;41.28;;;13.07;;
49029;SDS011;43337;52.070;4.508;2023-12-07T12:56:20;43.42;;;13.40;;
49029;SDS011;43337;52.070;4.508;2023-12-07T12:58:51;40.53;;;13.05;;
49029;SDS011;43337;52.070;4.508;2023-12-07T13:01:18;40.50;;;12.32;;
49029;SDS011;43337;52.070;4.508;2023-12-07T13:03:49;35.65;;;12.20;;
49029;SDS011;43337;52.070;4.508;2023-12-07T13:06:18;38.50;;;12.13;;
49029;SDS011;43337;52.070;4.508;2023-12-07T13:08:44;31.45;;;11.20;;
49029;SDS011;43337;52.070;4.508;2023-12-07T13:11:17;39.47;;;14.55;;
49029;SDS011;43337;52.070;4.508;2023-12-07T13:13:46;32.72;;;11.35;;
49029;SDS011;43337;52.070;4.508;2023-12-07T13:16:13;35.70;;;11.90;;
49029;SDS011;43337;52.070;4.508;2023-12-07T13:18:57;38.15;;;13.02;;
49029;SDS011;43337;52.070;4.508;2023-12-07T13:21:23;37.92;;;12.13;;
49029;SDS011;43337;52.070;4.508;2023-12-07T13:23:48;37.83;;;11.50;;
49029;SDS011;43337;52.070;4.508;2023-12-07T13:26:14;33.38;;;11.30;;
49029;SDS011;43337;52.070;4.508;2023-12-07T13:28:39;34.28;;;11.90;;
49029;SDS011;43337;52.070;4.508;2023-12-07T13:31:05;33.95;;;11.70;;
49029;SDS011;43337;52.070;4.508;2023-12-07T13:33:31;33.25;;;11.65;;
49029;SDS011;43337;52.070;4.508;2023-12-07T13:36:02;30.40;;;12.20;;
49029;SDS011;43337;52.070;4.508;2023-12-07T13:38:27;42.53;;;12.48;;
49029;SDS011;43337;52.070;4.508;2023-12-07T13:40:56;28.20;;;10.55;;
49029;SDS011;43337;52.070;4.508;2023-12-07T13:43:22;31.63;;;11.52;;
49029;SDS011;43337;52.070;4.508;2023-12-07T13:45:56;30.83;;;11.52;;
49029;SDS011;43337;52.070;4.508;2023-12-07T13:48:22;30.15;;;10.65;;
49029;SDS011;43337;52.070;4.508;2023-12-07T13:50:47;32.55;;;10.60;;
49029;SDS011;43337;52.070;4.508;2023-12-07T13:53:13;39.55;;;12.15;;
49029;SDS011;43337;52.070;4.508;2023-12-07T13:55:41;36.28;;;12.07;;
49029;SDS011;43337;52.070;4.508;2023-12-07T13:58:09;30.33;;;11.70;;
49029;SDS011;43337;52.070;4.508;2023-12-07T14:00:34;26.52;;;10.70;;
49029;SDS011;43337;52.070;4.508;2023-12-07T14:03:04;31.00;;;10.73;;
49029;SDS011;43337;52.070;4.508;2023-12-07T14:05:30;28.98;;;10.23;;
49029;SDS011;43337;52.070;4.508;2023-12-07T14:07:56;29.17;;;10.70;;
49029;SDS011;43337;52.070;4.508;2023-12-07T14:10:21;29.80;;;10.77;;
49029;SDS011;43337;52.070;4.508;2023-12-07T14:12:51;35.38;;;11.90;;
49029;SDS011;43337;52.070;4.508;2023-12-07T14:15:18;31.45;;;11.15;;
49029;SDS011;43337;52.070;4.508;2023-12-07T14:17:50;27.13;;;10.77;;
49029;SDS011;43337;52.070;4.508;2023-12-07T14:20:27;30.15;;;10.50;;
49029;SDS011;43337;52.070;4.508;2023-12-07T14:25:32;31.48;;;10.63;;
49029;SDS011;43337;52.070;4.508;2023-12-07T14:27:57;30.63;;;11.90;;
49029;SDS011;43337;52.070;4.508;2023-12-07T14:30:23;31.88;;;11.57;;
49029;SDS011;43337;52.070;4.508;2023-12-07T14:32:48;29.88;;;10.15;;
49029;SDS011;43337;52.070;4.508;2023-12-07T14:35:20;27.77;;;10.93;;
49029;SDS011;43337;52.070;4.508;2023-12-07T14:37:46;31.40;;;10.38;;
49029;SDS011;43337;52.070;4.508;2023-12-07T14:40:12;30.52;;;11.30;;